sensor_id;sensor_type;location;lat;lon;timestamp;pressure;altitude;pressure_sealevel;temperature;humidity
69239;BME280;56349;51.816;-0.026;2023-02-13T00:01:51;102989.73;;;27.45;26.64
69239;BME280;56349;51.816;-0.026;2023-02-13T00:04:16;102989.71;;;27.38;26.71
69239;BME280;56349;51.816;-0.026;2023-02-13T00:06:42;102985.73;;;27.32;26.73
69239;BME280;56349;51.816;-0.026;2023-02-13T00:09:08;102990.27;;;27.21;26.70
69239;BME280;56349;51.816;-0.026;2023-02-13T00:11:34;102988.57;;;27.03;26.73
69239;BME280;56349;51.816;-0.026;2023-02-13T00:14:00;102985.48;;;27.08;26.79
69239;BME280;56349;51.816;-0.026;2023-02-13T00:16:26;102982.51;;;26.85;26.88
69239;BME280;56349;51.816;-0.026;2023-02-13T00:18:51;102985.20;;;26.72;27.03
69239;BME280;56349;51.816;-0.026;2023-02-13T00:21:17;102980.78;;;26.38;27.20
69239;BME280;56349;51.816;-0.026;2023-02-13T00:23:43;102978.61;;;26.07;27.41
69239;BME280;56349;51.816;-0.026;2023-02-13T00:26:12;102979.02;;;26.23;27.61
69239;BME280;56349;51.816;-0.026;2023-02-13T00:28:35;102977.80;;;25.89;27.86
69239;BME280;56349;51.816;-0.026;2023-02-13T00:31:05;102980.71;;;25.81;28.08
69239;BME280;56349;51.816;-0.026;2023-02-13T00:33:26;102978.25;;;25.50;28.30
69239;BME280;56349;51.816;-0.026;2023-02-13T00:38:18;102982.76;;;24.90;28.77
69239;BME280;56349;51.816;-0.026;2023-02-13T00:40:43;102980.43;;;24.89;28.98
69239;BME280;56349;51.816;-0.026;2023-02-13T00:43:09;102984.07;;;24.62;29.23
69239;BME280;56349;51.816;-0.026;2023-02-13T00:45:35;102986.33;;;24.58;29.46
69239;BME280;56349;51.816;-0.026;2023-02-13T00:48:01;102983.29;;;24.32;29.69
69239;BME280;56349;51.816;-0.026;2023-02-13T00:50:27;102978.46;;;24.27;29.92
69239;BME280;56349;51.816;-0.026;2023-02-13T00:52:53;102977.76;;;24.01;30.16
69239;BME280;56349;51.816;-0.026;2023-02-13T00:55:18;102978.70;;;23.79;30.39
69239;BME280;56349;51.816;-0.026;2023-02-13T00:57:44;102981.53;;;23.84;30.59
69239;BME280;56349;51.816;-0.026;2023-02-13T01:00:11;102982.70;;;23.63;30.82
69239;BME280;56349;51.816;-0.026;2023-02-13T01:02:36;102978.68;;;23.41;31.04
69239;BME280;56349;51.816;-0.026;2023-02-13T01:05:03;102979.31;;;23.23;31.24
69239;BME280;56349;51.816;-0.026;2023-02-13T01:07:27;102981.23;;;23.27;31.45
69239;BME280;56349;51.816;-0.026;2023-02-13T01:09:53;102977.65;;;23.08;31.64
69239;BME280;56349;51.816;-0.026;2023-02-13T01:12:19;102975.44;;;22.90;31.82
69239;BME280;56349;51.816;-0.026;2023-02-13T01:14:45;102974.20;;;22.75;31.99
69239;BME280;56349;51.816;-0.026;2023-02-13T01:17:11;102972.60;;;22.37;32.13
69239;BME280;56349;51.816;-0.026;2023-02-13T01:19:39;102973.26;;;22.44;32.30
69239;BME280;56349;51.816;-0.026;2023-02-13T01:22:02;102973.67;;;22.31;32.46
69239;BME280;56349;51.816;-0.026;2023-02-13T01:24:30;102970.92;;;22.18;32.58
69239;BME280;56349;51.816;-0.026;2023-02-13T01:26:54;102968.52;;;22.52;32.76
69239;BME280;56349;51.816;-0.026;2023-02-13T01:29:19;102968.93;;;22.39;32.90
69239;BME280;56349;51.816;-0.026;2023-02-13T01:31:45;102968.70;;;22.02;33.06
69239;BME280;56349;51.816;-0.026;2023-02-13T01:34:11;102967.72;;;22.12;33.19
69239;BME280;56349;51.816;-0.026;2023-02-13T01:36:37;102970.63;;;22.01;33.31
69239;BME280;56349;51.816;-0.026;2023-02-13T01:39:02;102972.18;;;21.90;33.47
69239;BME280;56349;51.816;-0.026;2023-02-13T01:41:27;102974.40;;;21.81;33.58
69239;BME280;56349;51.816;-0.026;2023-02-13T01:43:54;102974.48;;;21.73;33.66
69239;BME280;56349;51.816;-0.026;2023-02-13T01:46:23;102972.64;;;21.64;33.78
69239;BME280;56349;51.816;-0.026;2023-02-13T01:48:44;102970.17;;;21.53;33.91
69239;BME280;56349;51.816;-0.026;2023-02-13T01:51:11;102969.17;;;21.92;34.00
69239;BME280;56349;51.816;-0.026;2023-02-13T01:53:38;102963.85;;;21.57;34.11
69239;BME280;56349;51.816;-0.026;2023-02-13T01:56:04;102960.49;;;21.48;34.21
69239;BME280;56349;51.816;-0.026;2023-02-13T01:58:28;102962.59;;;21.21;34.25
69239;BME280;56349;51.816;-0.026;2023-02-13T02:00:51;102961.31;;;21.13;34.34
69239;BME280;56349;51.816;-0.026;2023-02-13T02:03:22;102959.42;;;21.05;34.43
69239;BME280;56349;51.816;-0.026;2023-02-13T02:05:44;102959.14;;;21.20;34.54
69239;BME280;56349;51.816;-0.026;2023-02-13T02:08:11;102962.09;;;21.40;34.63
69239;BME280;56349;51.816;-0.026;2023-02-13T02:10:35;102961.80;;;21.08;34.69
69239;BME280;56349;51.816;-0.026;2023-02-13T02:13:05;102957.81;;;20.78;34.74
69239;BME280;56349;51.816;-0.026;2023-02-13T02:15:26;102956.35;;;20.94;34.84
69239;BME280;56349;51.816;-0.026;2023-02-13T02:17:52;102953.88;;;20.89;34.90
69239;BME280;56349;51.816;-0.026;2023-02-13T02:20:28;102952.82;;;21.10;34.95
69239;BME280;56349;51.816;-0.026;2023-02-13T02:22:56;102951.12;;;21.05;35.00
69239;BME280;56349;51.816;-0.026;2023-02-13T02:25:17;102949.02;;;21.00;35.06
69239;BME280;56349;51.816;-0.026;2023-02-13T02:32:35;102947.45;;;20.83;35.27
69239;BME280;56349;51.816;-0.026;2023-02-13T02:34:57;102949.76;;;20.78;35.31
69239;BME280;56349;51.816;-0.026;2023-02-13T02:37:28;102950.70;;;20.73;35.35
69239;BME280;56349;51.816;-0.026;2023-02-13T02:39:47;102950.98;;;20.68;35.41
69239;BME280;56349;51.816;-0.026;2023-02-13T02:42:16;102952.00;;;20.64;35.46
69239;BME280;56349;51.816;-0.026;2023-02-13T02:44:39;102951.16;;;20.59;35.51
69239;BME280;56349;51.816;-0.026;2023-02-13T02:47:10;102948.85;;;20.54;35.57
69239;BME280;56349;51.816;-0.026;2023-02-13T02:49:24;102943.75;;;20.50;35.61
69239;BME280;56349;51.816;-0.026;2023-02-13T02:51:56;102945.09;;;20.48;35.60
69239;BME280;56349;51.816;-0.026;2023-02-13T02:54:20;102944.93;;;20.42;35.68
69239;BME280;56349;51.816;-0.026;2023-02-13T02:56:42;102944.35;;;20.82;35.73
69239;BME280;56349;51.816;-0.026;2023-02-13T02:59:10;102942.69;;;20.33;35.76
69239;BME280;56349;51.816;-0.026;2023-02-13T03:01:33;102944.13;;;20.29;35.78
69239;BME280;56349;51.816;-0.026;2023-02-13T03:03:58;102942.80;;;20.25;35.81
69239;BME280;56349;51.816;-0.026;2023-02-13T03:06:26;102941.46;;;20.21;35.83
69239;BME280;56349;51.816;-0.026;2023-02-13T03:08:53;102940.39;;;20.18;35.87
69239;BME280;56349;51.816;-0.026;2023-02-13T03:11:14;102942.48;;;20.16;35.89
69239;BME280;56349;51.816;-0.026;2023-02-13T03:13:44;102942.95;;;20.36;35.92
69239;BME280;56349;51.816;-0.026;2023-02-13T03:16:09;102946.08;;;20.10;35.96
69239;BME280;56349;51.816;-0.026;2023-02-13T03:18:35;102948.02;;;20.28;35.98
69239;BME280;56349;51.816;-0.026;2023-02-13T03:21:04;102948.33;;;20.24;36.00
69239;BME280;56349;51.816;-0.026;2023-02-13T03:23:30;102950.49;;;20.21;36.02
69239;BME280;56349;51.816;-0.026;2023-02-13T03:26:04;102949.74;;;19.93;36.03
69239;BME280;56349;51.816;-0.026;2023-02-13T03:28:18;102950.32;;;20.33;36.09
69239;BME280;56349;51.816;-0.026;2023-02-13T03:30:50;102947.77;;;20.31;36.13
69239;BME280;56349;51.816;-0.026;2023-02-13T03:33:13;102944.32;;;20.28;36.14
69239;BME280;56349;51.816;-0.026;2023-02-13T03:35:38;102943.27;;;20.02;36.15
69239;BME280;56349;51.816;-0.026;2023-02-13T03:38:01;102942.51;;;19.77;36.17
69239;BME280;56349;51.816;-0.026;2023-02-13T03:40:27;102940.22;;;20.19;36.19
69239;BME280;56349;51.816;-0.026;2023-02-13T03:42:52;102941.90;;;19.94;36.21
69239;BME280;56349;51.816;-0.026;2023-02-13T03:45:17;102937.97;;;19.68;36.25
69239;BME280;56349;51.816;-0.026;2023-02-13T03:47:41;102935.87;;;19.88;36.26
69239;BME280;56349;51.816;-0.026;2023-02-13T03:50:08;102938.30;;;19.87;36.27
69239;BME280;56349;51.816;-0.026;2023-02-13T03:52:34;102939.64;;;19.64;36.24
69239;BME280;56349;51.816;-0.026;2023-02-13T03:54:59;102938.66;;;20.07;36.25
69239;BME280;56349;51.816;-0.026;2023-02-13T03:57:23;102939.02;;;20.04;36.28
69239;BME280;56349;51.816;-0.026;2023-02-13T03:59:48;102939.22;;;20.28;36.30
69239;BME280;56349;51.816;-0.026;2023-02-13T04:02:17;102935.45;;;19.96;36.35
69239;BME280;56349;51.816;-0.026;2023-02-13T04:04:45;102932.40;;;19.68;36.41
69239;BME280;56349;51.816;-0.026;2023-02-13T04:07:06;102932.89;;;19.88;36.43
69239;BME280;56349;51.816;-0.026;2023-02-13T04:09:31;102933.09;;;19.64;36.42
69239;BME280;56349;51.816;-0.026;2023-02-13T04:12:00;102935.18;;;19.65;36.43
69239;BME280;56349;51.816;-0.026;2023-02-13T04:14:24;102933.11;;;19.64;36.42
69239;BME280;56349;51.816;-0.026;2023-02-13T04:16:50;102933.99;;;19.85;36.44
69239;BME280;56349;51.816;-0.026;2023-02-13T04:19:12;102933.67;;;19.83;36.43
69239;BME280;56349;51.816;-0.026;2023-02-13T04:21:38;102928.84;;;19.58;36.44
69239;BME280;56349;51.816;-0.026;2023-02-13T04:24:03;102926.66;;;19.79;36.43
69239;BME280;56349;51.816;-0.026;2023-02-13T04:26:32;102922.60;;;19.75;36.45
69239;BME280;56349;51.816;-0.026;2023-02-13T04:28:52;102920.94;;;19.48;36.50
69239;BME280;56349;51.816;-0.026;2023-02-13T04:31:19;102925.85;;;19.73;36.51
69239;BME280;56349;51.816;-0.026;2023-02-13T04:33:44;102926.86;;;19.73;36.62
69239;BME280;56349;51.816;-0.026;2023-02-13T04:36:10;102922.57;;;19.78;36.75
69239;BME280;56349;51.816;-0.026;2023-02-13T04:38:36;102922.02;;;19.90;36.81
69239;BME280;56349;51.816;-0.026;2023-02-13T04:41:02;102922.99;;;19.84;36.78
69239;BME280;56349;51.816;-0.026;2023-02-13T04:43:28;102922.12;;;20.25;36.59
69239;BME280;56349;51.816;-0.026;2023-02-13T04:45:53;102924.35;;;20.22;36.31
69239;BME280;56349;51.816;-0.026;2023-02-13T04:48:19;102921.06;;;20.18;36.01
69239;BME280;56349;51.816;-0.026;2023-02-13T04:50:45;102923.81;;;20.34;35.73
69239;BME280;56349;51.816;-0.026;2023-02-13T04:53:11;102923.71;;;20.45;35.48
69239;BME280;56349;51.816;-0.026;2023-02-13T04:55:37;102920.11;;;20.25;35.31
69239;BME280;56349;51.816;-0.026;2023-02-13T04:58:02;102921.08;;;20.56;35.15
69239;BME280;56349;51.816;-0.026;2023-02-13T05:00:28;102919.39;;;20.79;35.04
69239;BME280;56349;51.816;-0.026;2023-02-13T05:03:00;102916.13;;;20.55;34.98
69239;BME280;56349;51.816;-0.026;2023-02-13T05:05:19;102918.85;;;20.52;34.92
69239;BME280;56349;51.816;-0.026;2023-02-13T05:07:44;102917.40;;;20.47;34.95
69239;BME280;56349;51.816;-0.026;2023-02-13T05:10:11;102916.04;;;20.43;35.06
69239;BME280;56349;51.816;-0.026;2023-02-13T05:12:36;102915.48;;;20.40;35.17
69239;BME280;56349;51.816;-0.026;2023-02-13T05:15:02;102911.95;;;20.37;35.29
69239;BME280;56349;51.816;-0.026;2023-02-13T05:17:27;102912.72;;;20.33;35.45
69239;BME280;56349;51.816;-0.026;2023-02-13T05:19:53;102911.18;;;20.31;35.65
69239;BME280;56349;51.816;-0.026;2023-02-13T05:22:19;102911.90;;;20.29;35.83
69239;BME280;56349;51.816;-0.026;2023-02-13T05:24:45;102909.86;;;20.74;35.97
69239;BME280;56349;51.816;-0.026;2023-02-13T05:27:11;102908.19;;;20.29;36.16
69239;BME280;56349;51.816;-0.026;2023-02-13T05:29:37;102908.16;;;20.28;36.33
69239;BME280;56349;51.816;-0.026;2023-02-13T05:32:03;102909.11;;;20.51;36.50
69239;BME280;56349;51.816;-0.026;2023-02-13T05:34:28;102911.11;;;20.53;36.64
69239;BME280;56349;51.816;-0.026;2023-02-13T05:36:54;102911.13;;;20.33;36.76
69239;BME280;56349;51.816;-0.026;2023-02-13T05:39:21;102907.16;;;20.34;36.87
69239;BME280;56349;51.816;-0.026;2023-02-13T05:41:46;102903.69;;;20.36;36.99
69239;BME280;56349;51.816;-0.026;2023-02-13T05:44:12;102902.74;;;20.85;37.08
69239;BME280;56349;51.816;-0.026;2023-02-13T05:46:39;102903.38;;;20.65;37.17
69239;BME280;56349;51.816;-0.026;2023-02-13T05:49:03;102903.03;;;20.47;37.23
69239;BME280;56349;51.816;-0.026;2023-02-13T05:51:29;102902.47;;;20.73;37.28
69239;BME280;56349;51.816;-0.026;2023-02-13T05:53:54;102901.31;;;20.55;37.32
69239;BME280;56349;51.816;-0.026;2023-02-13T05:56:20;102897.71;;;20.58;37.37
69239;BME280;56349;51.816;-0.026;2023-02-13T05:58:46;102897.85;;;20.61;37.42
69239;BME280;56349;51.816;-0.026;2023-02-13T06:01:12;102901.45;;;20.63;37.47
69239;BME280;56349;51.816;-0.026;2023-02-13T06:03:38;102904.83;;;20.66;37.48
69239;BME280;56349;51.816;-0.026;2023-02-13T06:06:03;102902.01;;;20.70;37.48
69239;BME280;56349;51.816;-0.026;2023-02-13T06:08:29;102898.94;;;20.76;37.45
69239;BME280;56349;51.816;-0.026;2023-02-13T06:10:55;102894.62;;;20.79;37.46
69239;BME280;56349;51.816;-0.026;2023-02-13T06:13:21;102891.03;;;20.81;37.47
69239;BME280;56349;51.816;-0.026;2023-02-13T06:15:47;102893.09;;;20.84;37.48
69239;BME280;56349;51.816;-0.026;2023-02-13T06:18:13;102892.66;;;20.85;37.48
69239;BME280;56349;51.816;-0.026;2023-02-13T06:20:39;102890.70;;;20.87;37.46
69239;BME280;56349;51.816;-0.026;2023-02-13T06:23:05;102892.53;;;20.89;37.48
69239;BME280;56349;51.816;-0.026;2023-02-13T06:25:31;102889.10;;;20.65;37.47
69239;BME280;56349;51.816;-0.026;2023-02-13T06:27:56;102892.57;;;20.96;37.42
69239;BME280;56349;51.816;-0.026;2023-02-13T06:30:22;102898.50;;;20.98;37.40
69239;BME280;56349;51.816;-0.026;2023-02-13T06:32:48;102901.60;;;21.00;37.36
69239;BME280;56349;51.816;-0.026;2023-02-13T06:35:15;102899.68;;;21.02;37.30
69239;BME280;56349;51.816;-0.026;2023-02-13T06:37:40;102898.76;;;21.01;37.25
69239;BME280;56349;51.816;-0.026;2023-02-13T06:40:06;102899.54;;;20.74;37.21
69239;BME280;56349;51.816;-0.026;2023-02-13T06:42:30;102899.63;;;21.01;37.14
69239;BME280;56349;51.816;-0.026;2023-02-13T06:44:55;102901.10;;;21.02;37.04
69239;BME280;56349;51.816;-0.026;2023-02-13T06:47:21;102902.37;;;21.01;36.98
69239;BME280;56349;51.816;-0.026;2023-02-13T06:49:48;102902.28;;;20.99;36.91
69239;BME280;56349;51.816;-0.026;2023-02-13T06:52:14;102902.31;;;20.99;36.85
69239;BME280;56349;51.816;-0.026;2023-02-13T06:54:40;102900.85;;;20.99;36.77
69239;BME280;56349;51.816;-0.026;2023-02-13T06:57:05;102900.43;;;20.95;36.71
69239;BME280;56349;51.816;-0.026;2023-02-13T06:59:31;102902.31;;;20.93;36.67
69239;BME280;56349;51.816;-0.026;2023-02-13T07:01:58;102909.32;;;20.90;36.61
69239;BME280;56349;51.816;-0.026;2023-02-13T07:04:24;102909.89;;;20.89;36.54
69239;BME280;56349;51.816;-0.026;2023-02-13T07:06:49;102907.01;;;20.88;36.47
69239;BME280;56349;51.816;-0.026;2023-02-13T07:09:15;102907.57;;;20.87;36.41
69239;BME280;56349;51.816;-0.026;2023-02-13T07:11:41;102907.31;;;21.05;36.36
69239;BME280;56349;51.816;-0.026;2023-02-13T07:14:07;102912.47;;;20.80;36.32
69239;BME280;56349;51.816;-0.026;2023-02-13T07:16:32;102912.60;;;20.77;36.30
69239;BME280;56349;51.816;-0.026;2023-02-13T07:18:58;102910.28;;;20.46;36.27
69239;BME280;56349;51.816;-0.026;2023-02-13T07:21:24;102911.77;;;20.68;36.25
69239;BME280;56349;51.816;-0.026;2023-02-13T07:23:51;102912.17;;;20.68;36.19
69239;BME280;56349;51.816;-0.026;2023-02-13T07:26:17;102910.36;;;20.64;36.17
69239;BME280;56349;51.816;-0.026;2023-02-13T07:28:43;102912.84;;;20.61;36.15
69239;BME280;56349;51.816;-0.026;2023-02-13T07:31:08;102913.94;;;20.57;36.14
69239;BME280;56349;51.816;-0.026;2023-02-13T07:33:33;102914.69;;;20.53;36.12
69239;BME280;56349;51.816;-0.026;2023-02-13T07:35:58;102911.87;;;20.50;36.12
69239;BME280;56349;51.816;-0.026;2023-02-13T07:38:24;102910.10;;;20.92;36.10
69239;BME280;56349;51.816;-0.026;2023-02-13T07:40:50;102911.39;;;20.69;36.06
69239;BME280;56349;51.816;-0.026;2023-02-13T07:43:16;102911.40;;;20.87;36.03
69239;BME280;56349;51.816;-0.026;2023-02-13T07:45:42;102911.98;;;20.37;36.04
69239;BME280;56349;51.816;-0.026;2023-02-13T07:48:08;102910.56;;;20.32;36.05
69239;BME280;56349;51.816;-0.026;2023-02-13T07:50:34;102914.65;;;20.28;36.06
69239;BME280;56349;51.816;-0.026;2023-02-13T07:53:01;102921.57;;;20.25;36.05
69239;BME280;56349;51.816;-0.026;2023-02-13T07:55:26;102921.04;;;20.22;36.05
69239;BME280;56349;51.816;-0.026;2023-02-13T07:57:51;102918.54;;;20.20;36.04
69239;BME280;56349;51.816;-0.026;2023-02-13T08:00:18;102914.25;;;20.38;36.03
69239;BME280;56349;51.816;-0.026;2023-02-13T08:02:43;102915.92;;;20.12;36.04
69239;BME280;56349;51.816;-0.026;2023-02-13T08:05:08;102915.47;;;20.30;36.05
69239;BME280;56349;51.816;-0.026;2023-02-13T08:07:35;102910.41;;;20.05;36.06
69239;BME280;56349;51.816;-0.026;2023-02-13T08:10:00;102905.45;;;20.46;36.07
69239;BME280;56349;51.816;-0.026;2023-02-13T08:12:25;102906.38;;;20.21;36.07
69239;BME280;56349;51.816;-0.026;2023-02-13T08:14:52;102909.10;;;20.19;36.07
69239;BME280;56349;51.816;-0.026;2023-02-13T08:17:16;102910.68;;;20.39;36.08
69239;BME280;56349;51.816;-0.026;2023-02-13T08:19:42;102908.73;;;19.91;36.08
69239;BME280;56349;51.816;-0.026;2023-02-13T08:22:08;102907.52;;;19.90;36.07
69239;BME280;56349;51.816;-0.026;2023-02-13T08:24:34;102906.32;;;19.90;36.04
69239;BME280;56349;51.816;-0.026;2023-02-13T08:27:00;102904.86;;;20.09;36.03
69239;BME280;56349;51.816;-0.026;2023-02-13T08:29:26;102905.03;;;20.27;36.06
69239;BME280;56349;51.816;-0.026;2023-02-13T08:31:52;102901.26;;;20.00;36.09
69239;BME280;56349;51.816;-0.026;2023-02-13T08:34:18;102897.85;;;19.99;36.07
69239;BME280;56349;51.816;-0.026;2023-02-13T08:36:44;102896.70;;;19.95;36.09
69239;BME280;56349;51.816;-0.026;2023-02-13T08:39:10;102894.39;;;20.16;36.12
69239;BME280;56349;51.816;-0.026;2023-02-13T08:41:36;102893.11;;;20.17;36.11
69239;BME280;56349;51.816;-0.026;2023-02-13T08:44:02;102890.03;;;20.20;36.15
69239;BME280;56349;51.816;-0.026;2023-02-13T08:46:28;102888.64;;;20.24;36.42
69239;BME280;56349;51.816;-0.026;2023-02-13T08:48:54;102887.94;;;20.10;36.74
69239;BME280;56349;51.816;-0.026;2023-02-13T08:51:19;102889.01;;;20.47;36.85
69239;BME280;56349;51.816;-0.026;2023-02-13T08:53:45;102890.57;;;20.23;36.87
69239;BME280;56349;51.816;-0.026;2023-02-13T08:56:11;102894.87;;;20.48;36.91
69239;BME280;56349;51.816;-0.026;2023-02-13T08:58:37;102890.52;;;20.78;37.03
69239;BME280;56349;51.816;-0.026;2023-02-13T09:01:07;102890.95;;;21.12;36.83
69239;BME280;56349;51.816;-0.026;2023-02-13T09:03:29;102891.73;;;20.97;36.67
69239;BME280;56349;51.816;-0.026;2023-02-13T09:05:53;102887.52;;;21.31;36.31
69239;BME280;56349;51.816;-0.026;2023-02-13T09:08:19;102887.88;;;21.47;35.89
69239;BME280;56349;51.816;-0.026;2023-02-13T09:10:45;102892.10;;;22.05;35.48
69239;BME280;56349;51.816;-0.026;2023-02-13T09:13:11;102893.52;;;21.88;35.05
69239;BME280;56349;51.816;-0.026;2023-02-13T09:15:37;102889.45;;;22.21;34.64
69239;BME280;56349;51.816;-0.026;2023-02-13T09:18:02;102885.99;;;22.52;34.24
69239;BME280;56349;51.816;-0.026;2023-02-13T09:20:28;102877.25;;;22.83;33.84
69239;BME280;56349;51.816;-0.026;2023-02-13T09:22:54;102876.63;;;23.13;33.44
69239;BME280;56349;51.816;-0.026;2023-02-13T09:25:19;102874.16;;;23.16;33.08
69239;BME280;56349;51.816;-0.026;2023-02-13T09:27:45;102870.59;;;23.14;32.72
69239;BME280;56349;51.816;-0.026;2023-02-13T09:30:13;102873.02;;;23.40;32.37
69239;BME280;56349;51.816;-0.026;2023-02-13T09:32:36;102868.94;;;23.61;32.04
69239;BME280;56349;51.816;-0.026;2023-02-13T09:35:02;102868.89;;;23.59;31.78
69239;BME280;56349;51.816;-0.026;2023-02-13T09:37:27;102869.41;;;23.99;31.50
69239;BME280;56349;51.816;-0.026;2023-02-13T09:39:53;102872.87;;;23.95;31.27
69239;BME280;56349;51.816;-0.026;2023-02-13T09:42:21;102867.69;;;24.31;31.02
69239;BME280;56349;51.816;-0.026;2023-02-13T09:44:45;102867.71;;;24.01;30.81
69239;BME280;56349;51.816;-0.026;2023-02-13T09:47:14;102868.68;;;23.92;30.70
69239;BME280;56349;51.816;-0.026;2023-02-13T09:49:39;102866.30;;;24.41;30.48
69239;BME280;56349;51.816;-0.026;2023-02-13T09:52:02;102865.32;;;24.52;30.22
69239;BME280;56349;51.816;-0.026;2023-02-13T09:54:28;102864.39;;;24.51;30.01
69239;BME280;56349;51.816;-0.026;2023-02-13T09:56:55;102867.14;;;24.42;29.95
69239;BME280;56349;51.816;-0.026;2023-02-13T09:59:31;102865.93;;;24.28;29.92
69239;BME280;56349;51.816;-0.026;2023-02-13T10:01:47;102866.33;;;24.11;30.02
69239;BME280;56349;51.816;-0.026;2023-02-13T10:04:23;102869.33;;;23.93;30.11
69239;BME280;56349;51.816;-0.026;2023-02-13T10:06:38;102877.51;;;23.93;30.19
69239;BME280;56349;51.816;-0.026;2023-02-13T10:09:09;102879.10;;;23.91;30.31
69239;BME280;56349;51.816;-0.026;2023-02-13T10:14:00;102874.79;;;23.40;30.68
69239;BME280;56349;51.816;-0.026;2023-02-13T10:16:20;102870.15;;;23.16;30.88
69239;BME280;56349;51.816;-0.026;2023-02-13T10:18:48;102869.09;;;22.95;31.02
69239;BME280;56349;51.816;-0.026;2023-02-13T10:21:10;102866.59;;;23.03;31.15
69239;BME280;56349;51.816;-0.026;2023-02-13T10:23:37;102867.69;;;23.08;31.25
69239;BME280;56349;51.816;-0.026;2023-02-13T10:26:00;102868.25;;;22.67;31.39
69239;BME280;56349;51.816;-0.026;2023-02-13T10:28:31;102865.54;;;22.73;31.49
69239;BME280;56349;51.816;-0.026;2023-02-13T10:30:51;102864.83;;;22.58;31.62
69239;BME280;56349;51.816;-0.026;2023-02-13T10:33:18;102864.82;;;22.42;31.73
69239;BME280;56349;51.816;-0.026;2023-02-13T10:35:41;102864.83;;;22.26;31.88
69239;BME280;56349;51.816;-0.026;2023-02-13T10:38:11;102858.77;;;22.57;32.05
69239;BME280;56349;51.816;-0.026;2023-02-13T10:40:36;102855.09;;;22.19;32.24
69239;BME280;56349;51.816;-0.026;2023-02-13T10:43:03;102851.47;;;22.25;32.37
69239;BME280;56349;51.816;-0.026;2023-02-13T10:45:35;102850.78;;;22.12;32.60
69239;BME280;56349;51.816;-0.026;2023-02-13T10:47:59;102854.77;;;21.99;32.86
69239;BME280;56349;51.816;-0.026;2023-02-13T10:50:20;102855.80;;;21.71;33.05
69239;BME280;56349;51.816;-0.026;2023-02-13T10:52:48;102854.62;;;21.97;33.16
69239;BME280;56349;51.816;-0.026;2023-02-13T10:55:17;102854.54;;;22.07;33.21
69239;BME280;56349;51.816;-0.026;2023-02-13T10:57:41;102855.19;;;22.23;33.16
69239;BME280;56349;51.816;-0.026;2023-02-13T11:00:06;102855.79;;;21.95;33.08
69239;BME280;56349;51.816;-0.026;2023-02-13T11:02:25;102855.54;;;22.16;32.96
69239;BME280;56349;51.816;-0.026;2023-02-13T11:04:49;102855.46;;;22.42;32.78
69239;BME280;56349;51.816;-0.026;2023-02-13T11:07:16;102848.03;;;22.45;32.56
69239;BME280;56349;51.816;-0.026;2023-02-13T11:09:41;102849.43;;;22.71;32.35
69239;BME280;56349;51.816;-0.026;2023-02-13T11:14:30;102846.45;;;23.19;31.65
69239;BME280;56349;51.816;-0.026;2023-02-13T11:16:58;102847.85;;;23.10;31.39
69239;BME280;56349;51.816;-0.026;2023-02-13T11:19:25;102851.87;;;23.30;31.20
69239;BME280;56349;51.816;-0.026;2023-02-13T11:21:53;102848.57;;;23.32;31.00
69239;BME280;56349;51.816;-0.026;2023-02-13T11:24:20;102847.90;;;23.34;30.77
69239;BME280;56349;51.816;-0.026;2023-02-13T11:26:39;102845.01;;;23.97;30.59
69239;BME280;56349;51.816;-0.026;2023-02-13T11:29:05;102843.38;;;23.72;30.54
69239;BME280;56349;51.816;-0.026;2023-02-13T11:31:31;102840.81;;;23.91;30.55
69239;BME280;56349;51.816;-0.026;2023-02-13T11:33:56;102840.78;;;24.11;30.46
69239;BME280;56349;51.816;-0.026;2023-02-13T11:36:25;102838.48;;;24.28;30.29
69239;BME280;56349;51.816;-0.026;2023-02-13T11:38:57;102831.88;;;24.43;30.14
69239;BME280;56349;51.816;-0.026;2023-02-13T11:41:14;102826.98;;;24.58;29.95
69239;BME280;56349;51.816;-0.026;2023-02-13T11:43:45;102825.23;;;24.51;29.77
69239;BME280;56349;51.816;-0.026;2023-02-13T11:46:05;102818.69;;;24.64;29.60
69239;BME280;56349;51.816;-0.026;2023-02-13T11:48:29;102813.67;;;25.05;29.46
69239;BME280;56349;51.816;-0.026;2023-02-13T11:50:55;102813.30;;;24.75;29.27
69239;BME280;56349;51.816;-0.026;2023-02-13T11:53:22;102814.89;;;24.93;29.08
69239;BME280;56349;51.816;-0.026;2023-02-13T11:58:22;102805.50;;;25.11;28.86
69239;BME280;56349;51.816;-0.026;2023-02-13T12:00:39;102803.93;;;25.38;28.79
69239;BME280;56349;51.816;-0.026;2023-02-13T12:05:28;102799.96;;;25.17;28.48
69239;BME280;56349;51.816;-0.026;2023-02-13T12:07:57;102797.71;;;25.29;28.34
69239;BME280;56349;51.816;-0.026;2023-02-13T12:10:23;102792.03;;;25.63;28.22
69239;BME280;56349;51.816;-0.026;2023-02-13T12:12:52;102782.25;;;25.70;28.11
69239;BME280;56349;51.816;-0.026;2023-02-13T12:15:16;102780.58;;;25.75;28.01
69239;BME280;56349;51.816;-0.026;2023-02-13T12:17:36;102779.92;;;25.60;27.93
69239;BME280;56349;51.816;-0.026;2023-02-13T12:20:02;102779.72;;;25.34;27.89
69239;BME280;56349;51.816;-0.026;2023-02-13T12:22:31;102777.36;;;25.35;27.83
69239;BME280;56349;51.816;-0.026;2023-02-13T12:27:24;102775.68;;;25.33;27.77
69239;BME280;56349;51.816;-0.026;2023-02-13T12:29:53;102775.50;;;25.31;27.78
69239;BME280;56349;51.816;-0.026;2023-02-13T12:32:18;102768.74;;;25.78;27.79
69239;BME280;56349;51.816;-0.026;2023-02-13T12:37:12;102756.74;;;25.73;27.79
69239;BME280;56349;51.816;-0.026;2023-02-13T12:39:31;102759.22;;;25.22;27.79
69239;BME280;56349;51.816;-0.026;2023-02-13T12:42:02;102763.52;;;25.69;27.79
69239;BME280;56349;51.816;-0.026;2023-02-13T12:44:29;102761.42;;;25.51;27.75
69239;BME280;56349;51.816;-0.026;2023-02-13T12:46:51;102762.49;;;25.36;27.63
69239;BME280;56349;51.816;-0.026;2023-02-13T12:49:19;102764.20;;;25.73;27.51
69239;BME280;56349;51.816;-0.026;2023-02-13T12:51:43;102762.38;;;25.75;27.45
69239;BME280;56349;51.816;-0.026;2023-02-13T12:54:12;102758.44;;;25.75;27.43